sensor_id;sensor_type;location;lat;lon;timestamp;P1;durP1;ratioP1;P2;durP2;ratioP2
41631;SDS011;37452;51.938;4.624;2022-12-29T00:01:55;2.05;;;0.73;;
41631;SDS011;37452;51.938;4.624;2022-12-29T00:04:21;1.67;;;0.88;;
41631;SDS011;37452;51.938;4.624;2022-12-29T00:06:46;3.78;;;0.77;;
41631;SDS011;37452;51.938;4.624;2022-12-29T00:09:13;3.00;;;0.82;;
41631;SDS011;37452;51.938;4.624;2022-12-29T00:11:40;2.33;;;0.93;;
41631;SDS011;37452;51.938;4.624;2022-12-29T00:16:52;1.60;;;0.75;;
41631;SDS011;37452;51.938;4.624;2022-12-29T00:19:17;2.10;;;0.98;;
41631;SDS011;37452;51.938;4.624;2022-12-29T00:22:02;2.20;;;1.00;;
41631;SDS011;37452;51.938;4.624;2022-12-29T00:24:46;2.63;;;1.05;;
41631;SDS011;37452;51.938;4.624;2022-12-29T00:27:27;5.43;;;1.10;;
41631;SDS011;37452;51.938;4.624;2022-12-29T00:30:12;1.75;;;0.90;;
41631;SDS011;37452;51.938;4.624;2022-12-29T00:32:58;1.67;;;0.80;;
41631;SDS011;37452;51.938;4.624;2022-12-29T00:35:47;1.55;;;0.55;;
41631;SDS011;37452;51.938;4.624;2022-12-29T00:38:17;4.03;;;0.85;;
41631;SDS011;37452;51.938;4.624;2022-12-29T00:41:02;1.67;;;0.80;;
41631;SDS011;37452;51.938;4.624;2022-12-29T00:43:59;1.45;;;0.70;;
41631;SDS011;37452;51.938;4.624;2022-12-29T00:46:32;1.75;;;0.95;;
41631;SDS011;37452;51.938;4.624;2022-12-29T00:48:59;2.10;;;0.95;;
41631;SDS011;37452;51.938;4.624;2022-12-29T00:51:43;1.73;;;0.50;;
41631;SDS011;37452;51.938;4.624;2022-12-29T00:54:09;3.63;;;0.85;;
41631;SDS011;37452;51.938;4.624;2022-12-29T00:56:35;3.50;;;0.82;;
41631;SDS011;37452;51.938;4.624;2022-12-29T00:59:04;4.65;;;1.17;;
41631;SDS011;37452;51.938;4.624;2022-12-29T01:01:32;2.72;;;0.88;;
41631;SDS011;37452;51.938;4.624;2022-12-29T01:03:58;2.95;;;0.90;;
41631;SDS011;37452;51.938;4.624;2022-12-29T01:06:23;2.53;;;1.00;;
41631;SDS011;37452;51.938;4.624;2022-12-29T01:08:50;1.50;;;0.80;;
41631;SDS011;37452;51.938;4.624;2022-12-29T01:11:36;3.63;;;0.73;;
41631;SDS011;37452;51.938;4.624;2022-12-29T01:16:27;2.28;;;0.82;;
41631;SDS011;37452;51.938;4.624;2022-12-29T01:21:19;2.03;;;0.60;;
41631;SDS011;37452;51.938;4.624;2022-12-29T01:23:44;3.45;;;0.95;;
41631;SDS011;37452;51.938;4.624;2022-12-29T01:26:13;1.58;;;0.68;;
41631;SDS011;37452;51.938;4.624;2022-12-29T01:28:40;2.97;;;0.82;;
41631;SDS011;37452;51.938;4.624;2022-12-29T01:31:09;3.35;;;0.98;;
41631;SDS011;37452;51.938;4.624;2022-12-29T01:33:36;2.58;;;1.13;;
41631;SDS011;37452;51.938;4.624;2022-12-29T01:36:03;1.27;;;0.60;;
41631;SDS011;37452;51.938;4.624;2022-12-29T01:38:30;2.15;;;0.88;;
41631;SDS011;37452;51.938;4.624;2022-12-29T01:40:57;1.75;;;0.70;;
41631;SDS011;37452;51.938;4.624;2022-12-29T01:43:37;2.72;;;0.73;;
41631;SDS011;37452;51.938;4.624;2022-12-29T01:46:04;2.47;;;0.65;;
41631;SDS011;37452;51.938;4.624;2022-12-29T01:48:53;4.45;;;0.93;;
41631;SDS011;37452;51.938;4.624;2022-12-29T01:51:42;2.58;;;0.82;;
41631;SDS011;37452;51.938;4.624;2022-12-29T01:54:37;1.63;;;0.73;;
41631;SDS011;37452;51.938;4.624;2022-12-29T01:57:10;6.47;;;1.02;;
41631;SDS011;37452;51.938;4.624;2022-12-29T01:59:42;2.25;;;0.75;;
41631;SDS011;37452;51.938;4.624;2022-12-29T02:02:13;5.72;;;0.85;;
41631;SDS011;37452;51.938;4.624;2022-12-29T02:04:40;3.38;;;0.77;;
41631;SDS011;37452;51.938;4.624;2022-12-29T02:07:21;5.80;;;0.73;;
41631;SDS011;37452;51.938;4.624;2022-12-29T02:09:49;1.77;;;0.57;;
41631;SDS011;37452;51.938;4.624;2022-12-29T02:12:18;2.25;;;0.65;;
41631;SDS011;37452;51.938;4.624;2022-12-29T02:14:45;3.35;;;0.80;;
41631;SDS011;37452;51.938;4.624;2022-12-29T02:17:20;1.55;;;0.55;;
41631;SDS011;37452;51.938;4.624;2022-12-29T02:20:10;4.63;;;0.65;;
41631;SDS011;37452;51.938;4.624;2022-12-29T02:23:20;7.30;;;1.35;;
41631;SDS011;37452;51.938;4.624;2022-12-29T02:29:06;2.72;;;0.50;;
41631;SDS011;37452;51.938;4.624;2022-12-29T02:34:33;1.75;;;0.32;;
41631;SDS011;37452;51.938;4.624;2022-12-29T02:42:38;8.18;;;1.45;;
41631;SDS011;37452;51.938;4.624;2022-12-29T02:45:30;2.65;;;0.43;;
41631;SDS011;37452;51.938;4.624;2022-12-29T02:50:50;5.43;;;0.40;;
41631;SDS011;37452;51.938;4.624;2022-12-29T02:53:24;3.67;;;0.70;;
41631;SDS011;37452;51.938;4.624;2022-12-29T02:56:20;3.85;;;0.43;;
41631;SDS011;37452;51.938;4.624;2022-12-29T02:58:46;1.75;;;0.38;;
41631;SDS011;37452;51.938;4.624;2022-12-29T03:14:42;3.70;;;0.60;;
41631;SDS011;37452;51.938;4.624;2022-12-29T03:20:06;3.47;;;0.90;;
41631;SDS011;37452;51.938;4.624;2022-12-29T03:22:34;3.67;;;0.55;;
41631;SDS011;37452;51.938;4.624;2022-12-29T03:25:10;6.38;;;1.10;;
41631;SDS011;37452;51.938;4.624;2022-12-29T03:27:51;3.25;;;0.50;;
41631;SDS011;37452;51.938;4.624;2022-12-29T03:30:21;4.33;;;0.60;;
41631;SDS011;37452;51.938;4.624;2022-12-29T03:32:52;4.70;;;0.63;;
41631;SDS011;37452;51.938;4.624;2022-12-29T03:35:22;5.30;;;0.50;;
41631;SDS011;37452;51.938;4.624;2022-12-29T03:37:58;4.05;;;0.70;;
41631;SDS011;37452;51.938;4.624;2022-12-29T03:40:26;2.92;;;0.50;;
41631;SDS011;37452;51.938;4.624;2022-12-29T03:42:53;4.07;;;1.08;;
41631;SDS011;37452;51.938;4.624;2022-12-29T03:45:20;2.15;;;0.40;;
41631;SDS011;37452;51.938;4.624;2022-12-29T03:47:46;6.80;;;0.70;;
41631;SDS011;37452;51.938;4.624;2022-12-29T03:50:12;3.75;;;0.57;;
41631;SDS011;37452;51.938;4.624;2022-12-29T03:52:38;6.80;;;0.70;;
41631;SDS011;37452;51.938;4.624;2022-12-29T03:55:04;4.43;;;0.68;;
41631;SDS011;37452;51.938;4.624;2022-12-29T03:57:29;3.17;;;0.55;;
41631;SDS011;37452;51.938;4.624;2022-12-29T03:59:55;4.13;;;0.73;;
41631;SDS011;37452;51.938;4.624;2022-12-29T04:02:20;4.03;;;0.75;;
41631;SDS011;37452;51.938;4.624;2022-12-29T04:04:46;5.60;;;0.90;;
41631;SDS011;37452;51.938;4.624;2022-12-29T04:07:11;2.60;;;0.65;;
41631;SDS011;37452;51.938;4.624;2022-12-29T04:09:37;4.57;;;1.15;;
41631;SDS011;37452;51.938;4.624;2022-12-29T04:12:02;5.60;;;0.70;;
41631;SDS011;37452;51.938;4.624;2022-12-29T04:14:28;4.97;;;1.08;;
41631;SDS011;37452;51.938;4.624;2022-12-29T04:16:54;11.90;;;1.35;;
41631;SDS011;37452;51.938;4.624;2022-12-29T04:19:19;6.13;;;0.85;;
41631;SDS011;37452;51.938;4.624;2022-12-29T04:21:45;14.55;;;3.03;;
41631;SDS011;37452;51.938;4.624;2022-12-29T04:24:10;4.63;;;0.77;;
41631;SDS011;37452;51.938;4.624;2022-12-29T04:26:37;6.13;;;0.80;;
41631;SDS011;37452;51.938;4.624;2022-12-29T04:29:03;10.40;;;1.35;;
41631;SDS011;37452;51.938;4.624;2022-12-29T04:31:29;5.05;;;0.80;;
41631;SDS011;37452;51.938;4.624;2022-12-29T04:33:54;5.15;;;1.42;;
41631;SDS011;37452;51.938;4.624;2022-12-29T04:36:22;9.05;;;1.33;;
41631;SDS011;37452;51.938;4.624;2022-12-29T04:38:47;8.02;;;1.77;;
41631;SDS011;37452;51.938;4.624;2022-12-29T04:41:13;7.55;;;1.50;;
41631;SDS011;37452;51.938;4.624;2022-12-29T04:43:38;4.82;;;0.75;;
41631;SDS011;37452;51.938;4.624;2022-12-29T04:46:04;6.50;;;1.25;;
41631;SDS011;37452;51.938;4.624;2022-12-29T04:48:30;6.57;;;1.00;;
41631;SDS011;37452;51.938;4.624;2022-12-29T04:50:55;7.50;;;1.00;;
41631;SDS011;37452;51.938;4.624;2022-12-29T04:53:21;10.45;;;1.25;;
41631;SDS011;37452;51.938;4.624;2022-12-29T04:55:50;8.30;;;0.98;;
41631;SDS011;37452;51.938;4.624;2022-12-29T04:58:17;8.75;;;0.90;;
41631;SDS011;37452;51.938;4.624;2022-12-29T05:00:43;6.97;;;1.00;;
41631;SDS011;37452;51.938;4.624;2022-12-29T05:03:09;8.10;;;0.82;;
41631;SDS011;37452;51.938;4.624;2022-12-29T05:05:34;9.63;;;0.88;;
41631;SDS011;37452;51.938;4.624;2022-12-29T05:08:00;9.02;;;1.02;;
41631;SDS011;37452;51.938;4.624;2022-12-29T05:10:25;6.95;;;0.80;;
41631;SDS011;37452;51.938;4.624;2022-12-29T05:12:51;6.88;;;0.95;;
41631;SDS011;37452;51.938;4.624;2022-12-29T05:15:16;10.73;;;1.33;;
41631;SDS011;37452;51.938;4.624;2022-12-29T05:17:42;8.20;;;1.20;;
41631;SDS011;37452;51.938;4.624;2022-12-29T05:20:07;7.72;;;1.30;;
41631;SDS011;37452;51.938;4.624;2022-12-29T05:22:33;11.05;;;1.58;;
41631;SDS011;37452;51.938;4.624;2022-12-29T05:24:59;9.60;;;1.10;;
41631;SDS011;37452;51.938;4.624;2022-12-29T05:27:24;4.47;;;0.93;;
41631;SDS011;37452;51.938;4.624;2022-12-29T05:29:50;9.70;;;1.80;;
41631;SDS011;37452;51.938;4.624;2022-12-29T05:32:15;12.80;;;1.00;;
41631;SDS011;37452;51.938;4.624;2022-12-29T05:34:41;12.07;;;1.58;;
41631;SDS011;37452;51.938;4.624;2022-12-29T05:37:06;4.75;;;1.33;;
41631;SDS011;37452;51.938;4.624;2022-12-29T05:39:32;10.00;;;1.17;;
41631;SDS011;37452;51.938;4.624;2022-12-29T05:41:57;17.52;;;1.65;;
41631;SDS011;37452;51.938;4.624;2022-12-29T05:44:23;14.45;;;1.70;;
41631;SDS011;37452;51.938;4.624;2022-12-29T05:46:48;9.95;;;1.45;;
41631;SDS011;37452;51.938;4.624;2022-12-29T05:49:15;9.95;;;1.58;;
41631;SDS011;37452;51.938;4.624;2022-12-29T05:51:40;20.40;;;2.38;;
41631;SDS011;37452;51.938;4.624;2022-12-29T05:54:06;17.77;;;2.15;;
41631;SDS011;37452;51.938;4.624;2022-12-29T05:56:31;11.93;;;1.35;;
41631;SDS011;37452;51.938;4.624;2022-12-29T05:58:57;11.07;;;1.90;;
41631;SDS011;37452;51.938;4.624;2022-12-29T06:01:22;9.52;;;1.73;;
41631;SDS011;37452;51.938;4.624;2022-12-29T06:03:48;8.82;;;1.25;;
41631;SDS011;37452;51.938;4.624;2022-12-29T06:06:14;6.25;;;1.02;;
41631;SDS011;37452;51.938;4.624;2022-12-29T06:08:39;11.52;;;1.90;;
41631;SDS011;37452;51.938;4.624;2022-12-29T06:11:05;10.05;;;1.20;;
41631;SDS011;37452;51.938;4.624;2022-12-29T06:13:30;7.40;;;0.88;;
41631;SDS011;37452;51.938;4.624;2022-12-29T06:15:56;11.93;;;1.65;;
41631;SDS011;37452;51.938;4.624;2022-12-29T06:18:22;11.82;;;1.00;;
41631;SDS011;37452;51.938;4.624;2022-12-29T06:20:47;14.63;;;1.77;;
41631;SDS011;37452;51.938;4.624;2022-12-29T06:23:13;11.15;;;1.20;;
41631;SDS011;37452;51.938;4.624;2022-12-29T06:25:38;6.05;;;1.17;;
41631;SDS011;37452;51.938;4.624;2022-12-29T06:28:04;5.53;;;0.93;;
41631;SDS011;37452;51.938;4.624;2022-12-29T06:30:30;13.68;;;1.35;;
41631;SDS011;37452;51.938;4.624;2022-12-29T06:32:57;12.13;;;1.70;;
41631;SDS011;37452;51.938;4.624;2022-12-29T06:35:23;7.88;;;1.00;;
41631;SDS011;37452;51.938;4.624;2022-12-29T06:40:17;8.77;;;1.08;;
41631;SDS011;37452;51.938;4.624;2022-12-29T06:42:43;7.65;;;1.08;;
41631;SDS011;37452;51.938;4.624;2022-12-29T06:45:09;7.22;;;1.02;;
41631;SDS011;37452;51.938;4.624;2022-12-29T06:47:35;6.45;;;0.98;;
41631;SDS011;37452;51.938;4.624;2022-12-29T06:50:01;8.45;;;1.15;;
41631;SDS011;37452;51.938;4.624;2022-12-29T06:52:27;8.02;;;0.95;;
41631;SDS011;37452;51.938;4.624;2022-12-29T06:54:53;8.93;;;1.35;;
41631;SDS011;37452;51.938;4.624;2022-12-29T06:57:19;7.22;;;1.52;;
41631;SDS011;37452;51.938;4.624;2022-12-29T06:59:46;12.82;;;1.08;;
41631;SDS011;37452;51.938;4.624;2022-12-29T07:02:11;9.15;;;1.25;;
41631;SDS011;37452;51.938;4.624;2022-12-29T07:04:39;12.23;;;1.30;;
41631;SDS011;37452;51.938;4.624;2022-12-29T07:07:04;12.77;;;1.30;;
41631;SDS011;37452;51.938;4.624;2022-12-29T07:09:30;4.55;;;1.52;;
41631;SDS011;37452;51.938;4.624;2022-12-29T07:11:55;11.02;;;1.58;;
41631;SDS011;37452;51.938;4.624;2022-12-29T07:14:21;5.72;;;0.90;;
41631;SDS011;37452;51.938;4.624;2022-12-29T07:16:46;8.38;;;1.33;;
41631;SDS011;37452;51.938;4.624;2022-12-29T07:19:12;9.02;;;1.25;;
41631;SDS011;37452;51.938;4.624;2022-12-29T07:21:37;11.32;;;1.30;;
41631;SDS011;37452;51.938;4.624;2022-12-29T07:24:03;5.93;;;1.38;;
41631;SDS011;37452;51.938;4.624;2022-12-29T07:26:29;6.70;;;1.02;;
41631;SDS011;37452;51.938;4.624;2022-12-29T07:28:54;6.28;;;1.38;;
41631;SDS011;37452;51.938;4.624;2022-12-29T07:31:21;8.35;;;1.42;;
41631;SDS011;37452;51.938;4.624;2022-12-29T07:33:47;11.10;;;1.27;;
41631;SDS011;37452;51.938;4.624;2022-12-29T07:36:14;12.65;;;1.25;;
41631;SDS011;37452;51.938;4.624;2022-12-29T07:38:41;7.35;;;1.23;;
41631;SDS011;37452;51.938;4.624;2022-12-29T07:43:33;16.08;;;2.55;;
41631;SDS011;37452;51.938;4.624;2022-12-29T07:45:58;9.23;;;1.13;;
41631;SDS011;37452;51.938;4.624;2022-12-29T07:48:24;8.48;;;1.40;;
41631;SDS011;37452;51.938;4.624;2022-12-29T07:50:49;8.77;;;1.27;;
41631;SDS011;37452;51.938;4.624;2022-12-29T07:53:16;11.80;;;1.83;;
41631;SDS011;37452;51.938;4.624;2022-12-29T07:55:42;11.07;;;1.38;;
41631;SDS011;37452;51.938;4.624;2022-12-29T07:58:07;13.55;;;1.52;;
41631;SDS011;37452;51.938;4.624;2022-12-29T08:00:33;14.63;;;1.30;;
41631;SDS011;37452;51.938;4.624;2022-12-29T08:02:58;11.52;;;1.80;;
41631;SDS011;37452;51.938;4.624;2022-12-29T08:05:24;15.32;;;1.38;;
41631;SDS011;37452;51.938;4.624;2022-12-29T08:07:50;15.50;;;1.75;;
41631;SDS011;37452;51.938;4.624;2022-12-29T08:10:15;17.77;;;1.67;;
41631;SDS011;37452;51.938;4.624;2022-12-29T08:12:41;20.85;;;1.85;;
41631;SDS011;37452;51.938;4.624;2022-12-29T08:15:08;11.32;;;1.35;;
41631;SDS011;37452;51.938;4.624;2022-12-29T08:17:35;8.48;;;1.25;;
41631;SDS011;37452;51.938;4.624;2022-12-29T08:20:01;5.93;;;1.17;;
41631;SDS011;37452;51.938;4.624;2022-12-29T08:22:27;8.88;;;1.48;;
41631;SDS011;37452;51.938;4.624;2022-12-29T08:24:52;13.35;;;1.40;;
41631;SDS011;37452;51.938;4.624;2022-12-29T08:27:18;13.38;;;2.15;;
41631;SDS011;37452;51.938;4.624;2022-12-29T08:32:09;13.50;;;1.30;;
41631;SDS011;37452;51.938;4.624;2022-12-29T08:34:35;11.50;;;1.42;;
41631;SDS011;37452;51.938;4.624;2022-12-29T08:37:00;11.45;;;1.90;;
41631;SDS011;37452;51.938;4.624;2022-12-29T08:39:26;9.98;;;1.63;;
41631;SDS011;37452;51.938;4.624;2022-12-29T08:41:52;12.38;;;1.58;;
41631;SDS011;37452;51.938;4.624;2022-12-29T08:44:17;11.57;;;1.77;;
41631;SDS011;37452;51.938;4.624;2022-12-29T08:46:43;9.52;;;1.40;;
41631;SDS011;37452;51.938;4.624;2022-12-29T08:49:09;11.35;;;1.58;;
41631;SDS011;37452;51.938;4.624;2022-12-29T08:51:34;7.10;;;1.50;;
41631;SDS011;37452;51.938;4.624;2022-12-29T08:54:00;18.42;;;1.65;;
41631;SDS011;37452;51.938;4.624;2022-12-29T08:56:26;11.40;;;1.52;;
41631;SDS011;37452;51.938;4.624;2022-12-29T09:01:18;9.32;;;1.48;;
41631;SDS011;37452;51.938;4.624;2022-12-29T09:03:44;9.90;;;1.48;;
41631;SDS011;37452;51.938;4.624;2022-12-29T09:06:10;13.25;;;1.50;;
41631;SDS011;37452;51.938;4.624;2022-12-29T09:08:35;9.70;;;1.77;;
41631;SDS011;37452;51.938;4.624;2022-12-29T09:11:11;13.25;;;1.67;;
41631;SDS011;37452;51.938;4.624;2022-12-29T09:13:45;17.45;;;2.10;;
41631;SDS011;37452;51.938;4.624;2022-12-29T09:16:11;10.68;;;1.17;;
41631;SDS011;37452;51.938;4.624;2022-12-29T09:21:04;12.57;;;1.65;;
41631;SDS011;37452;51.938;4.624;2022-12-29T09:23:30;5.15;;;1.13;;
41631;SDS011;37452;51.938;4.624;2022-12-29T09:25:56;7.82;;;1.27;;
41631;SDS011;37452;51.938;4.624;2022-12-29T09:28:22;10.00;;;1.67;;
41631;SDS011;37452;51.938;4.624;2022-12-29T09:30:48;5.75;;;0.70;;
41631;SDS011;37452;51.938;4.624;2022-12-29T09:33:14;10.52;;;1.15;;
41631;SDS011;37452;51.938;4.624;2022-12-29T09:35:50;12.85;;;1.33;;
41631;SDS011;37452;51.938;4.624;2022-12-29T09:38:20;11.70;;;1.30;;
41631;SDS011;37452;51.938;4.624;2022-12-29T09:40:50;9.00;;;1.25;;
41631;SDS011;37452;51.938;4.624;2022-12-29T09:43:21;8.00;;;1.40;;
41631;SDS011;37452;51.938;4.624;2022-12-29T09:46:33;7.68;;;1.13;;
41631;SDS011;37452;51.938;4.624;2022-12-29T09:48:48;10.85;;;1.23;;
41631;SDS011;37452;51.938;4.624;2022-12-29T09:51:19;7.05;;;1.33;;
41631;SDS011;37452;51.938;4.624;2022-12-29T09:53:53;6.07;;;1.08;;
41631;SDS011;37452;51.938;4.624;2022-12-29T09:56:23;4.75;;;1.55;;
41631;SDS011;37452;51.938;4.624;2022-12-29T09:58:52;9.35;;;1.65;;
41631;SDS011;37452;51.938;4.624;2022-12-29T10:01:27;10.77;;;2.00;;
41631;SDS011;37452;51.938;4.624;2022-12-29T10:03:58;10.80;;;2.28;;
41631;SDS011;37452;51.938;4.624;2022-12-29T10:24:52;16.87;;;2.57;;
41631;SDS011;37452;51.938;4.624;2022-12-29T10:27:20;20.73;;;2.65;;
41631;SDS011;37452;51.938;4.624;2022-12-29T10:29:51;15.55;;;3.50;;
41631;SDS011;37452;51.938;4.624;2022-12-29T10:32:27;26.50;;;2.95;;
41631;SDS011;37452;51.938;4.624;2022-12-29T10:34:55;26.48;;;3.05;;
41631;SDS011;37452;51.938;4.624;2022-12-29T10:37:31;17.13;;;2.90;;
41631;SDS011;37452;51.938;4.624;2022-12-29T10:40:23;20.92;;;3.08;;
41631;SDS011;37452;51.938;4.624;2022-12-29T10:42:54;24.52;;;3.05;;
41631;SDS011;37452;51.938;4.624;2022-12-29T10:45:22;15.90;;;2.78;;
41631;SDS011;37452;51.938;4.624;2022-12-29T10:47:53;22.77;;;3.42;;
41631;SDS011;37452;51.938;4.624;2022-12-29T10:50:20;23.00;;;3.65;;
41631;SDS011;37452;51.938;4.624;2022-12-29T10:55:14;15.18;;;2.88;;
41631;SDS011;37452;51.938;4.624;2022-12-29T10:57:44;20.70;;;2.30;;
41631;SDS011;37452;51.938;4.624;2022-12-29T11:00:18;19.80;;;2.58;;
41631;SDS011;37452;51.938;4.624;2022-12-29T11:05:39;14.63;;;2.38;;
41631;SDS011;37452;51.938;4.624;2022-12-29T11:08:19;15.57;;;3.03;;
41631;SDS011;37452;51.938;4.624;2022-12-29T11:11:03;16.77;;;3.20;;
41631;SDS011;37452;51.938;4.624;2022-12-29T11:13:30;25.30;;;2.55;;
41631;SDS011;37452;51.938;4.624;2022-12-29T11:15:57;22.58;;;3.47;;
41631;SDS011;37452;51.938;4.624;2022-12-29T11:21:03;19.05;;;2.25;;
41631;SDS011;37452;51.938;4.624;2022-12-29T11:23:36;20.75;;;3.15;;
41631;SDS011;37452;51.938;4.624;2022-12-29T11:26:11;21.02;;;2.28;;
41631;SDS011;37452;51.938;4.624;2022-12-29T11:28:41;18.65;;;2.80;;
41631;SDS011;37452;51.938;4.624;2022-12-29T11:31:08;20.25;;;2.33;;
41631;SDS011;37452;51.938;4.624;2022-12-29T11:33:37;15.00;;;3.00;;
41631;SDS011;37452;51.938;4.624;2022-12-29T11:36:06;21.13;;;2.53;;
41631;SDS011;37452;51.938;4.624;2022-12-29T11:38:39;15.23;;;2.28;;
41631;SDS011;37452;51.938;4.624;2022-12-29T11:41:09;20.35;;;3.03;;
41631;SDS011;37452;51.938;4.624;2022-12-29T11:43:39;32.08;;;2.65;;
41631;SDS011;37452;51.938;4.624;2022-12-29T11:46:12;21.17;;;2.60;;
41631;SDS011;37452;51.938;4.624;2022-12-29T11:48:42;19.52;;;2.67;;
41631;SDS011;37452;51.938;4.624;2022-12-29T11:51:09;22.13;;;2.63;;
41631;SDS011;37452;51.938;4.624;2022-12-29T11:56:12;14.23;;;2.42;;
41631;SDS011;37452;51.938;4.624;2022-12-29T11:58:41;20.13;;;2.53;;
41631;SDS011;37452;51.938;4.624;2022-12-29T12:03:46;14.48;;;2.15;;
41631;SDS011;37452;51.938;4.624;2022-12-29T12:06:19;16.55;;;2.35;;
41631;SDS011;37452;51.938;4.624;2022-12-29T12:08:50;21.83;;;3.22;;
41631;SDS011;37452;51.938;4.624;2022-12-29T12:14:06;14.98;;;2.15;;
41631;SDS011;37452;51.938;4.624;2022-12-29T12:16:41;7.78;;;1.85;;
41631;SDS011;37452;51.938;4.624;2022-12-29T12:21:42;9.63;;;1.83;;
41631;SDS011;37452;51.938;4.624;2022-12-29T12:26:59;12.52;;;1.67;;
41631;SDS011;37452;51.938;4.624;2022-12-29T12:29:34;10.07;;;1.90;;
41631;SDS011;37452;51.938;4.624;2022-12-29T12:32:11;12.70;;;1.75;;
41631;SDS011;37452;51.938;4.624;2022-12-29T12:34:50;16.75;;;1.70;;
41631;SDS011;37452;51.938;4.624;2022-12-29T12:40:34;11.60;;;2.17;;
41631;SDS011;37452;51.938;4.624;2022-12-29T12:43:05;13.98;;;2.05;;
41631;SDS011;37452;51.938;4.624;2022-12-29T12:45:59;16.67;;;1.80;;
41631;SDS011;37452;51.938;4.624;2022-12-29T12:55:06;13.45;;;1.83;;
41631;SDS011;37452;51.938;4.624;2022-12-29T13:00:59;12.27;;;1.90;;
41631;SDS011;37452;51.938;4.624;2022-12-29T13:06:18;10.45;;;2.08;;
41631;SDS011;37452;51.938;4.624;2022-12-29T13:11:36;13.77;;;2.10;;
41631;SDS011;37452;51.938;4.624;2022-12-29T13:16:49;13.35;;;1.90;;
41631;SDS011;37452;51.938;4.624;2022-12-29T13:36:14;4.32;;;1.42;;
41631;SDS011;37452;51.938;4.624;2022-12-29T13:38:55;5.95;;;1.65;;
41631;SDS011;37452;51.938;4.624;2022-12-29T13:41:34;4.18;;;0.80;;
41631;SDS011;37452;51.938;4.624;2022-12-29T13:44:04;7.78;;;0.88;;
41631;SDS011;37452;51.938;4.624;2022-12-29T13:46:33;4.43;;;1.20;;
41631;SDS011;37452;51.938;4.624;2022-12-29T13:49:05;5.43;;;0.95;;
41631;SDS011;37452;51.938;4.624;2022-12-29T13:51:47;4.47;;;0.70;;
41631;SDS011;37452;51.938;4.624;2022-12-29T14:02:00;13.65;;;0.90;;
41631;SDS011;37452;51.938;4.624;2022-12-29T14:04:34;7.88;;;1.05;;
41631;SDS011;37452;51.938;4.624;2022-12-29T14:07:02;8.45;;;1.30;;
41631;SDS011;37452;51.938;4.624;2022-12-29T14:12:27;8.48;;;1.42;;
41631;SDS011;37452;51.938;4.624;2022-12-29T14:17:44;6.30;;;1.27;;
41631;SDS011;37452;51.938;4.624;2022-12-29T14:20:29;6.53;;;1.10;;
41631;SDS011;37452;51.938;4.624;2022-12-29T14:28:49;8.88;;;1.85;;
41631;SDS011;37452;51.938;4.624;2022-12-29T14:33:40;10.05;;;1.15;;
41631;SDS011;37452;51.938;4.624;2022-12-29T14:36:19;6.85;;;1.15;;
41631;SDS011;37452;51.938;4.624;2022-12-29T14:42:05;6.40;;;1.15;;
41631;SDS011;37452;51.938;4.624;2022-12-29T14:44:33;11.25;;;1.30;;
41631;SDS011;37452;51.938;4.624;2022-12-29T14:47:11;8.45;;;1.23;;
41631;SDS011;37452;51.938;4.624;2022-12-29T14:50:07;8.38;;;1.05;;
41631;SDS011;37452;51.938;4.624;2022-12-29T14:52:46;11.60;;;1.30;;
41631;SDS011;37452;51.938;4.624;2022-12-29T14:55:36;10.40;;;1.50;;
41631;SDS011;37452;51.938;4.624;2022-12-29T15:00:54;7.10;;;1.15;;
41631;SDS011;37452;51.938;4.624;2022-12-29T15:03:24;9.40;;;1.10;;
41631;SDS011;37452;51.938;4.624;2022-12-29T15:05:57;7.00;;;1.30;;
41631;SDS011;37452;51.938;4.624;2022-12-29T15:08:33;16.10;;;1.95;;
41631;SDS011;37452;51.938;4.624;2022-12-29T15:13:36;11.35;;;1.85;;
41631;SDS011;37452;51.938;4.624;2022-12-29T15:16:03;4.93;;;0.98;;
41631;SDS011;37452;51.938;4.624;2022-12-29T15:18:30;7.75;;;0.95;;
41631;SDS011;37452;51.938;4.624;2022-12-29T15:21:01;10.13;;;1.08;;
41631;SDS011;37452;51.938;4.624;2022-12-29T15:23:32;9.50;;;1.40;;
41631;SDS011;37452;51.938;4.624;2022-12-29T15:31:25;12.07;;;1.20;;
41631;SDS011;37452;51.938;4.624;2022-12-29T15:33:51;11.30;;;1.35;;
41631;SDS011;37452;51.938;4.624;2022-12-29T15:36:23;10.00;;;1.25;;
41631;SDS011;37452;51.938;4.624;2022-12-29T15:38:51;8.80;;;1.55;;
41631;SDS011;37452;51.938;4.624;2022-12-29T15:44:23;7.72;;;1.10;;
41631;SDS011;37452;51.938;4.624;2022-12-29T15:49:43;8.35;;;0.90;;
41631;SDS011;37452;51.938;4.624;2022-12-29T15:52:09;6.45;;;0.88;;
41631;SDS011;37452;51.938;4.624;2022-12-29T15:57:02;7.03;;;1.10;;
41631;SDS011;37452;51.938;4.624;2022-12-29T16:01:58;8.15;;;0.95;;
41631;SDS011;37452;51.938;4.624;2022-12-29T16:04:26;7.00;;;1.58;;
41631;SDS011;37452;51.938;4.624;2022-12-29T16:07:04;8.38;;;1.35;;
41631;SDS011;37452;51.938;4.624;2022-12-29T16:09:34;4.65;;;1.20;;
41631;SDS011;37452;51.938;4.624;2022-12-29T16:12:06;4.68;;;0.85;;
41631;SDS011;37452;51.938;4.624;2022-12-29T16:14:41;8.30;;;1.00;;
41631;SDS011;37452;51.938;4.624;2022-12-29T16:17:14;10.00;;;0.93;;
41631;SDS011;37452;51.938;4.624;2022-12-29T16:19:48;8.38;;;1.13;;
41631;SDS011;37452;51.938;4.624;2022-12-29T16:22:40;9.35;;;1.30;;
41631;SDS011;37452;51.938;4.624;2022-12-29T16:25:13;7.53;;;1.20;;
41631;SDS011;37452;51.938;4.624;2022-12-29T16:30:23;5.90;;;0.90;;
41631;SDS011;37452;51.938;4.624;2022-12-29T16:32:51;7.65;;;0.90;;
41631;SDS011;37452;51.938;4.624;2022-12-29T16:35:28;7.13;;;1.60;;
41631;SDS011;37452;51.938;4.624;2022-12-29T16:38:20;6.40;;;1.05;;
41631;SDS011;37452;51.938;4.624;2022-12-29T16:40:51;8.15;;;1.42;;
41631;SDS011;37452;51.938;4.624;2022-12-29T16:43:42;8.30;;;1.27;;
41631;SDS011;37452;51.938;4.624;2022-12-29T16:46:15;5.45;;;1.10;;
41631;SDS011;37452;51.938;4.624;2022-12-29T16:48:52;5.38;;;0.95;;
41631;SDS011;37452;51.938;4.624;2022-12-29T16:51:29;10.02;;;1.45;;
41631;SDS011;37452;51.938;4.624;2022-12-29T16:53:57;8.57;;;1.38;;
41631;SDS011;37452;51.938;4.624;2022-12-29T16:56:25;7.45;;;1.42;;
41631;SDS011;37452;51.938;4.624;2022-12-29T16:58:59;7.13;;;1.38;;
41631;SDS011;37452;51.938;4.624;2022-12-29T17:01:48;7.00;;;1.40;;
41631;SDS011;37452;51.938;4.624;2022-12-29T17:04:13;9.52;;;1.42;;
41631;SDS011;37452;51.938;4.624;2022-12-29T17:06:39;7.40;;;1.25;;
41631;SDS011;37452;51.938;4.624;2022-12-29T17:09:25;11.00;;;1.67;;
41631;SDS011;37452;51.938;4.624;2022-12-29T17:11:53;6.60;;;0.90;;
41631;SDS011;37452;51.938;4.624;2022-12-29T17:16:56;6.40;;;1.33;;
41631;SDS011;37452;51.938;4.624;2022-12-29T17:19:45;12.23;;;1.60;;
41631;SDS011;37452;51.938;4.624;2022-12-29T17:22:18;9.30;;;1.52;;
41631;SDS011;37452;51.938;4.624;2022-12-29T17:24:45;5.43;;;1.63;;
41631;SDS011;37452;51.938;4.624;2022-12-29T17:30:19;7.05;;;1.17;;
41631;SDS011;37452;51.938;4.624;2022-12-29T17:32:48;14.93;;;1.40;;
41631;SDS011;37452;51.938;4.624;2022-12-29T17:35:16;15.43;;;2.33;;
41631;SDS011;37452;51.938;4.624;2022-12-29T17:37:44;12.90;;;1.75;;
41631;SDS011;37452;51.938;4.624;2022-12-29T17:40:14;7.82;;;1.25;;
41631;SDS011;37452;51.938;4.624;2022-12-29T17:42:43;6.70;;;1.58;;
41631;SDS011;37452;51.938;4.624;2022-12-29T17:45:17;9.90;;;1.40;;
41631;SDS011;37452;51.938;4.624;2022-12-29T17:47:46;9.60;;;1.88;;
41631;SDS011;37452;51.938;4.624;2022-12-29T17:50:12;11.75;;;1.60;;
41631;SDS011;37452;51.938;4.624;2022-12-29T17:52:39;9.32;;;1.27;;
41631;SDS011;37452;51.938;4.624;2022-12-29T17:57:31;5.80;;;1.63;;
41631;SDS011;37452;51.938;4.624;2022-12-29T17:59:56;12.90;;;2.00;;
41631;SDS011;37452;51.938;4.624;2022-12-29T18:02:23;7.15;;;1.70;;
41631;SDS011;37452;51.938;4.624;2022-12-29T18:04:55;13.00;;;1.77;;
41631;SDS011;37452;51.938;4.624;2022-12-29T18:07:23;10.07;;;1.70;;